createdAt,value
2019-04-03T00:01:48.669Z,15.70
2019-04-03T00:04:19.281Z,14.93
2019-04-03T00:06:50.759Z,16.33
2019-04-03T00:09:20.273Z,15.73
2019-04-03T00:11:52.532Z,15.20
2019-04-03T00:14:22.069Z,14.90
2019-04-03T00:16:51.713Z,15.50
2019-04-03T00:19:23.353Z,15.13
2019-04-03T00:21:53.533Z,14.97
2019-04-03T00:24:25.291Z,24.33
2019-04-03T00:26:54.883Z,19.70
2019-04-03T00:29:24.528Z,14.97
2019-04-03T00:31:54.235Z,14.50
2019-04-03T00:34:23.980Z,15.47
2019-04-03T00:36:54.075Z,16.77
2019-04-03T00:39:24.354Z,15.77
2019-04-03T00:41:55.143Z,15.70
2019-04-03T00:44:25.244Z,16.83
2019-04-03T00:46:56.169Z,15.10
2019-04-03T00:49:26.451Z,15.07
2019-04-03T00:51:57.506Z,15.70
2019-04-03T00:54:27.339Z,14.80
2019-04-03T00:56:57.101Z,15.77
2019-04-03T00:59:26.884Z,15.10
2019-04-03T01:01:57.166Z,15.20
2019-04-03T01:04:28.934Z,15.30
2019-04-03T01:06:59.155Z,16.37
2019-04-03T01:09:29.784Z,15.90
2019-04-03T01:12:01.472Z,16.10
2019-04-03T01:14:32.460Z,16.83
2019-04-03T01:17:04.408Z,17.20
2019-04-03T01:19:36.140Z,17.10
2019-04-03T01:22:05.667Z,17.40
2019-04-03T01:24:36.721Z,17.17
2019-04-03T01:27:07.179Z,17.63
2019-04-03T01:29:38.503Z,17.47
2019-04-03T01:32:08.013Z,17.77
2019-04-03T01:34:37.541Z,20.07
2019-04-03T01:37:06.955Z,17.77
2019-04-03T01:39:36.499Z,17.70
2019-04-03T01:42:09.021Z,16.67
2019-04-03T01:44:38.383Z,17.03
2019-04-03T01:47:08.052Z,17.17
2019-04-03T01:49:39.764Z,16.43
2019-04-03T01:52:10.756Z,16.60
2019-04-03T01:54:42.014Z,17.57
2019-04-03T01:57:11.447Z,16.80
2019-04-03T01:59:41.119Z,17.37
2019-04-03T02:02:14.348Z,17.63
2019-04-03T02:04:44.390Z,16.43
2019-04-03T02:07:14.861Z,17.90
2019-04-03T02:09:47.217Z,19.30
2019-04-03T02:12:17.966Z,19.60
2019-04-03T02:14:51.549Z,19.10
2019-04-03T02:17:19.723Z,19.47
2019-04-03T02:19:49.649Z,18.77
2019-04-03T02:22:20.620Z,19.03
2019-04-03T02:24:50.319Z,19.63
2019-04-03T02:27:20.283Z,19.43
2019-04-03T02:29:52.272Z,19.40
2019-04-03T02:32:24.141Z,20.10
2019-04-03T02:34:54.692Z,19.80
2019-04-03T02:37:24.174Z,20.83
2019-04-03T02:39:53.905Z,19.60
2019-04-03T02:42:30.006Z,21.37
2019-04-03T02:45:02.698Z,21.47
2019-04-03T02:47:35.942Z,22.20
2019-04-03T02:50:05.681Z,20.07
2019-04-03T02:52:35.558Z,20.50
2019-04-03T02:55:08.577Z,19.73
2019-04-03T02:57:38.691Z,20.97
2019-04-03T03:00:08.556Z,21.10
2019-04-03T03:02:38.271Z,21.30
2019-04-03T03:05:08.046Z,21.00
2019-04-03T03:07:37.717Z,20.20
2019-04-03T03:10:07.413Z,20.87
2019-04-03T03:12:37.632Z,19.67
2019-04-03T03:15:10.957Z,20.67
2019-04-03T03:17:41.447Z,21.83
2019-04-03T03:20:11.603Z,20.77
2019-04-03T03:22:45.763Z,19.73
2019-04-03T03:25:17.261Z,21.13
2019-04-03T03:27:47.907Z,21.13
2019-04-03T03:30:35.886Z,19.53
2019-04-03T03:32:51.895Z,20.87
2019-04-03T03:35:30.664Z,21.10
2019-04-03T03:37:56.368Z,21.00
2019-04-03T03:40:26.047Z,23.00
2019-04-03T03:42:56.199Z,22.90
2019-04-03T03:45:27.199Z,23.10
2019-04-03T03:47:58.293Z,25.30
2019-04-03T03:50:27.974Z,24.97
2019-04-03T03:52:58.439Z,24.17
2019-04-03T03:55:29.839Z,22.20
2019-04-03T03:58:00.394Z,22.30
2019-04-03T04:00:36.503Z,22.87
2019-04-03T04:03:09.100Z,23.13
2019-04-03T04:05:36.864Z,22.83
2019-04-03T04:08:10.550Z,22.17
2019-04-03T04:10:38.961Z,22.10
2019-04-03T04:13:13.339Z,22.23
2019-04-03T04:15:40.427Z,22.80
2019-04-03T04:18:13.891Z,21.80
2019-04-03T04:20:42.538Z,26.57
2019-04-03T04:23:12.054Z,24.63
2019-04-03T04:25:43.869Z,23.50
2019-04-03T04:28:13.799Z,22.73
2019-04-03T04:30:44.461Z,23.57
2019-04-03T04:33:17.787Z,22.70
2019-04-03T04:35:51.688Z,23.00
2019-04-03T04:38:21.136Z,23.67
2019-04-03T04:40:50.871Z,22.10
2019-04-03T04:43:20.583Z,22.37
2019-04-03T04:45:51.319Z,24.87
2019-04-03T04:48:21.417Z,25.30
2019-04-03T04:50:51.180Z,23.57
2019-04-03T04:53:20.829Z,21.10
2019-04-03T04:55:50.735Z,24.90
2019-04-03T04:58:22.122Z,35.57
2019-04-03T05:00:57.769Z,29.47
2019-04-03T05:03:30.810Z,33.07
2019-04-03T05:06:00.285Z,26.10
2019-04-03T05:08:32.192Z,26.97
2019-04-03T05:11:02.641Z,26.07
2019-04-03T05:13:32.673Z,28.93
2019-04-03T05:16:02.369Z,25.37
2019-04-03T05:18:32.118Z,25.97
2019-04-03T05:21:01.898Z,27.10
2019-04-03T05:23:34.186Z,27.80
2019-04-03T05:26:05.927Z,28.97
2019-04-03T05:28:35.614Z,29.17
2019-04-03T05:31:08.162Z,29.93
2019-04-03T05:33:37.632Z,31.33
2019-04-03T05:36:12.486Z,28.47
2019-04-03T05:38:41.998Z,28.90
2019-04-03T05:41:11.969Z,30.20
2019-04-03T05:43:41.871Z,30.43
2019-04-03T05:46:11.435Z,29.17
2019-04-03T05:48:41.463Z,31.53
2019-04-03T05:51:14.105Z,29.17
2019-04-03T05:53:43.807Z,28.93
2019-04-03T05:56:18.461Z,31.00
2019-04-03T05:58:56.727Z,26.23
2019-04-03T06:01:22.983Z,23.47
2019-04-03T06:03:52.683Z,25.60
2019-04-03T06:06:22.357Z,25.97
2019-04-03T06:08:52.018Z,26.57
2019-04-03T06:11:21.519Z,25.70
2019-04-03T06:13:50.895Z,23.83
2019-04-03T06:16:24.481Z,23.00
2019-04-03T06:18:53.698Z,24.97
2019-04-03T06:21:24.306Z,26.67
2019-04-03T06:23:55.277Z,28.57
2019-04-03T06:26:27.646Z,26.77
2019-04-03T06:28:57.136Z,24.93
2019-04-03T06:31:27.206Z,24.27
2019-04-03T06:33:57.161Z,26.10
2019-04-03T06:36:28.516Z,24.07
2019-04-03T06:38:58.451Z,25.63
2019-04-03T06:41:28.267Z,27.50
2019-04-03T06:44:00.145Z,24.00
2019-04-03T06:46:29.930Z,28.60
2019-04-03T06:49:00.239Z,22.03
2019-04-03T06:51:30.292Z,24.43
2019-04-03T06:54:00.999Z,20.57
2019-04-03T06:56:30.588Z,20.27
2019-04-03T06:59:00.457Z,20.57
2019-04-03T07:01:29.973Z,21.17
2019-04-03T07:04:01.060Z,20.80
2019-04-03T07:06:30.765Z,21.20
2019-04-03T07:09:00.490Z,23.13
2019-04-03T07:11:30.215Z,26.00
2019-04-03T07:13:59.752Z,25.63
2019-04-03T07:16:29.405Z,25.43
2019-04-03T07:18:59.155Z,28.70
2019-04-03T07:21:28.933Z,26.90
2019-04-03T07:24:00.337Z,26.80
2019-04-03T07:26:29.680Z,23.80
2019-04-03T07:28:59.536Z,26.03
2019-04-03T07:31:29.124Z,27.40
2019-04-03T07:34:01.519Z,29.00
2019-04-03T07:36:29.979Z,25.73
2019-04-03T07:39:02.151Z,34.83
2019-04-03T07:41:34.144Z,29.17
2019-04-03T07:44:03.802Z,25.50
2019-04-03T07:46:33.950Z,23.17
2019-04-03T07:49:06.813Z,28.97
2019-04-03T07:51:38.956Z,26.10
2019-04-03T07:54:08.589Z,28.97
2019-04-03T07:56:38.286Z,26.93
2019-04-03T07:59:10.115Z,28.17
2019-04-03T08:01:41.947Z,26.33
2019-04-03T08:04:11.957Z,27.57
2019-04-03T08:06:41.486Z,31.13
2019-04-03T08:09:17.571Z,26.93
2019-04-03T08:11:47.047Z,23.17
2019-04-03T08:14:19.410Z,22.30
2019-04-03T08:16:49.702Z,27.20
2019-04-03T08:19:22.972Z,19.47
2019-04-03T08:21:53.332Z,20.60
2019-04-03T08:24:26.090Z,23.43
2019-04-03T08:26:57.226Z,19.63
2019-04-03T08:29:26.973Z,30.57
2019-04-03T08:31:56.914Z,26.43
2019-04-03T08:34:26.472Z,41.93
2019-04-03T08:36:56.189Z,34.17
2019-04-03T08:39:26.520Z,22.53
2019-04-03T08:41:57.108Z,26.80
2019-04-03T08:44:27.031Z,21.83
2019-04-03T08:46:56.679Z,30.93
2019-04-03T08:49:26.696Z,41.57
2019-04-03T08:52:00.076Z,32.13
2019-04-03T08:54:29.702Z,35.50
2019-04-03T08:57:00.468Z,25.33
2019-04-03T08:59:30.567Z,36.60
2019-04-03T09:02:00.474Z,21.33
2019-04-03T09:04:35.301Z,29.77
2019-04-03T09:07:05.013Z,17.53
2019-04-03T09:09:35.628Z,19.27
2019-04-03T09:12:09.269Z,18.80
2019-04-03T09:14:41.331Z,19.93
2019-04-03T09:17:11.070Z,15.97
2019-04-03T09:19:43.354Z,15.00
2019-04-03T09:22:12.927Z,13.87
2019-04-03T09:24:43.087Z,21.27
2019-04-03T09:27:15.593Z,24.47
2019-04-03T09:29:45.906Z,17.23
2019-04-03T09:32:15.056Z,16.03
2019-04-03T09:34:44.945Z,15.07
2019-04-03T09:37:17.487Z,13.93
2019-04-03T09:39:48.363Z,14.57
2019-04-03T09:42:17.969Z,16.00
2019-04-03T09:44:50.829Z,15.10
2019-04-03T09:47:20.853Z,15.40
2019-04-03T09:49:50.786Z,13.63
2019-04-03T09:52:21.176Z,13.50
2019-04-03T09:54:51.784Z,14.30
2019-04-03T09:57:21.561Z,13.63
2019-04-03T09:59:56.355Z,13.37
2019-04-03T10:02:29.129Z,13.90
2019-04-03T10:05:00.109Z,18.67
2019-04-03T10:07:35.428Z,14.17
2019-04-03T10:10:06.174Z,13.90
2019-04-03T10:12:35.771Z,13.43
2019-04-03T10:15:08.814Z,13.13
2019-04-03T10:17:39.321Z,13.93
2019-04-03T10:20:11.118Z,12.83
2019-04-03T10:22:42.002Z,15.67
2019-04-03T10:25:12.578Z,14.33
2019-04-03T10:27:43.533Z,14.60
2019-04-03T10:30:13.832Z,14.23
2019-04-03T10:32:43.536Z,17.00
2019-04-03T10:35:14.264Z,14.37
2019-04-03T10:37:48.793Z,16.50
2019-04-03T10:40:18.204Z,25.20
2019-04-03T10:42:47.773Z,16.77
2019-04-03T10:45:18.004Z,16.67
2019-04-03T10:47:49.326Z,17.00
2019-04-03T10:50:19.444Z,15.17
2019-04-03T10:52:49.365Z,14.60
2019-04-03T10:55:19.457Z,15.13
2019-04-03T10:57:51.851Z,14.77
2019-04-03T11:00:24.978Z,16.63
2019-04-03T11:02:54.054Z,15.63
2019-04-03T11:05:26.575Z,14.67
2019-04-03T11:07:56.076Z,14.57
2019-04-03T11:10:25.684Z,15.27
2019-04-03T11:12:55.699Z,14.23
2019-04-03T11:15:25.911Z,14.23
2019-04-03T11:18:02.880Z,14.40
2019-04-03T11:20:29.457Z,16.67
2019-04-03T11:23:06.787Z,15.07
2019-04-03T11:25:35.476Z,15.30
2019-04-03T11:28:06.912Z,15.43
2019-04-03T11:30:36.094Z,14.40
2019-04-03T11:33:06.922Z,14.00
2019-04-03T11:35:37.201Z,14.07
2019-04-03T11:38:12.667Z,13.67
2019-04-03T11:40:38.133Z,14.70
2019-04-03T11:43:09.941Z,14.90
2019-04-03T11:45:39.799Z,14.43
2019-04-03T11:48:09.123Z,15.27
2019-04-03T11:50:42.656Z,14.23
2019-04-03T11:53:13.793Z,14.53
2019-04-03T11:55:43.367Z,14.83
2019-04-03T11:58:14.082Z,14.77
2019-04-03T12:00:48.194Z,14.60
2019-04-03T12:03:22.189Z,13.33
2019-04-03T12:05:51.789Z,14.93
2019-04-03T12:08:27.547Z,15.17
2019-04-03T12:10:59.973Z,14.63
2019-04-03T12:13:32.058Z,15.47
2019-04-03T12:16:01.926Z,14.67
2019-04-03T12:18:35.106Z,13.03
2019-04-03T12:21:06.212Z,14.80
2019-04-03T12:23:38.735Z,14.77
2019-04-03T12:26:07.220Z,15.17
2019-04-03T12:28:39.534Z,13.90
2019-04-03T12:31:09.488Z,16.03
2019-04-03T12:33:51.663Z,15.40
2019-04-03T12:36:11.085Z,14.07
2019-04-03T12:38:42.555Z,15.03
2019-04-03T12:41:12.654Z,14.97
2019-04-03T12:43:42.367Z,14.07
2019-04-03T12:46:11.928Z,14.23
2019-04-03T12:48:42.830Z,14.43
2019-04-03T12:51:12.400Z,14.17
2019-04-03T12:53:41.803Z,15.40
2019-04-03T12:56:11.840Z,16.00
2019-04-03T12:58:46.743Z,15.10
2019-04-03T13:01:18.004Z,14.50
2019-04-03T13:03:47.636Z,13.83
2019-04-03T13:06:17.034Z,17.23
2019-04-03T13:08:46.419Z,18.63
2019-04-03T13:11:18.680Z,16.50
2019-04-03T13:13:47.509Z,16.93
2019-04-03T13:16:21.226Z,14.90
2019-04-03T13:18:50.970Z,16.80
2019-04-03T13:21:20.744Z,16.00
2019-04-03T13:23:50.791Z,16.17
2019-04-03T13:26:24.047Z,15.80
2019-04-03T13:28:51.705Z,15.53
2019-04-03T13:31:28.170Z,14.83
2019-04-03T13:33:57.868Z,15.30
2019-04-03T13:36:27.700Z,13.63
2019-04-03T13:39:00.300Z,13.83
2019-04-03T13:41:30.130Z,14.33
2019-04-03T13:44:02.467Z,15.00
2019-04-03T13:46:32.547Z,12.97
2019-04-03T13:49:02.683Z,12.83
2019-04-03T13:51:32.424Z,12.43
2019-04-03T13:54:07.219Z,12.90
2019-04-03T13:56:37.387Z,14.10
2019-04-03T13:59:07.279Z,13.43
2019-04-03T14:01:37.880Z,13.63
2019-04-03T14:04:08.174Z,14.23
2019-04-03T14:06:37.844Z,13.57
2019-04-03T14:09:10.010Z,12.43
2019-04-03T14:11:41.196Z,12.43
2019-04-03T14:14:13.391Z,15.93
2019-04-03T14:16:42.206Z,14.83
2019-04-03T14:19:13.174Z,11.93
2019-04-03T14:21:42.912Z,11.77
2019-04-03T14:24:12.664Z,11.43
2019-04-03T14:26:44.413Z,11.70
2019-04-03T14:29:13.608Z,11.60
2019-04-03T14:31:43.381Z,11.20
2019-04-03T14:34:13.030Z,11.70
2019-04-03T14:36:44.004Z,12.50
2019-04-03T14:39:14.707Z,11.87
2019-04-03T14:41:44.264Z,11.73
2019-04-03T14:44:13.740Z,11.00
2019-04-03T14:46:50.025Z,11.70
2019-04-03T14:49:17.878Z,12.07
2019-04-03T14:51:47.578Z,11.97
2019-04-03T14:54:17.291Z,11.63
2019-04-03T14:56:48.607Z,11.27
2019-04-03T14:59:18.123Z,10.30
2019-04-03T15:01:52.300Z,12.00
2019-04-03T15:04:22.089Z,10.83
2019-04-03T15:07:02.059Z,11.23
2019-04-03T15:09:27.046Z,13.67
2019-04-03T15:12:05.845Z,11.33
2019-04-03T15:14:35.257Z,11.13
2019-04-03T15:17:05.493Z,11.37
2019-04-03T15:19:35.666Z,11.80
2019-04-03T15:22:09.905Z,11.60
2019-04-03T15:24:42.646Z,11.30
2019-04-03T15:27:11.021Z,10.70
2019-04-03T15:29:47.852Z,11.07
2019-04-03T15:32:18.685Z,11.73
2019-04-03T15:34:50.632Z,12.60
2019-04-03T15:37:19.778Z,11.90
2019-04-03T15:39:57.396Z,11.13
2019-04-03T15:42:23.546Z,10.87
2019-04-03T15:44:53.289Z,10.53
2019-04-03T15:47:34.294Z,10.43
2019-04-03T15:49:58.840Z,10.53
2019-04-03T15:52:28.193Z,11.30
2019-04-03T15:54:58.453Z,11.20
2019-04-03T15:57:28.148Z,11.33
2019-04-03T15:59:58.098Z,11.13
2019-04-03T16:02:28.617Z,10.70
2019-04-03T16:04:59.928Z,10.70
2019-04-03T16:07:32.558Z,10.43
2019-04-03T16:10:00.607Z,11.23
2019-04-03T16:12:35.549Z,10.13
2019-04-03T16:15:09.220Z,10.73
2019-04-03T16:17:40.011Z,11.87
2019-04-03T16:20:10.314Z,11.27
2019-04-03T16:22:40.269Z,11.23
2019-04-03T16:25:10.326Z,10.77
2019-04-03T16:27:43.084Z,12.00
2019-04-03T16:30:16.170Z,10.40
2019-04-03T16:32:49.650Z,12.63
2019-04-03T16:35:19.054Z,13.40
2019-04-03T16:37:50.536Z,14.17
2019-04-03T16:40:20.310Z,12.83
2019-04-03T16:42:52.955Z,18.67
2019-04-03T16:45:20.911Z,19.67
2019-04-03T16:47:49.934Z,23.97
2019-04-03T16:50:19.977Z,24.37
2019-04-03T16:52:49.868Z,29.53
2019-04-03T16:55:19.280Z,27.13
2019-04-03T16:57:49.321Z,23.50
2019-04-03T17:00:20.643Z,18.20
2019-04-03T17:02:50.332Z,24.43
2019-04-03T17:05:20.248Z,24.23
2019-04-03T17:07:53.221Z,33.30
2019-04-03T17:10:21.324Z,30.00
2019-04-03T17:12:51.016Z,16.13
2019-04-03T17:15:22.365Z,19.70
2019-04-03T17:17:51.731Z,16.30
2019-04-03T17:20:22.560Z,20.03
2019-04-03T17:22:52.526Z,68.03
2019-04-03T17:25:22.453Z,66.53
2019-04-03T17:27:57.370Z,38.87
2019-04-03T17:30:23.884Z,42.20
2019-04-03T17:32:52.939Z,29.40
2019-04-03T17:35:21.971Z,16.40
2019-04-03T17:37:51.199Z,13.73
2019-04-03T17:40:20.713Z,41.37
2019-04-03T17:42:50.267Z,109.20
2019-04-03T17:45:22.626Z,30.67
2019-04-03T17:47:53.847Z,14.87
2019-04-03T17:50:23.096Z,18.50
2019-04-03T17:52:54.867Z,23.27
2019-04-03T17:55:24.713Z,21.67
2019-04-03T17:57:54.425Z,27.03
2019-04-03T18:00:24.954Z,24.67
2019-04-03T18:02:55.686Z,37.33
2019-04-03T18:05:26.633Z,33.10
2019-04-03T18:07:58.517Z,34.03
2019-04-03T18:10:27.251Z,62.27
2019-04-03T18:12:56.826Z,85.23
2019-04-03T18:15:27.520Z,101.67
2019-04-03T18:17:58.022Z,83.43
2019-04-03T18:20:27.563Z,36.30
2019-04-03T18:22:57.041Z,34.40
2019-04-03T18:25:28.803Z,24.73
2019-04-03T18:27:58.355Z,29.93
2019-04-03T18:30:28.452Z,41.00
2019-04-03T18:32:59.349Z,95.00
2019-04-03T18:35:33.770Z,38.43
2019-04-03T18:38:07.576Z,39.70
2019-04-03T18:40:37.311Z,48.13
2019-04-03T18:43:07.847Z,26.40
2019-04-03T18:45:39.739Z,22.43
2019-04-03T18:48:09.517Z,21.30
2019-04-03T18:50:39.202Z,25.60
2019-04-03T18:53:09.761Z,24.90
2019-04-03T18:55:45.311Z,29.43
2019-04-03T18:58:18.054Z,25.53
2019-04-03T19:00:47.998Z,29.33
2019-04-03T19:03:18.842Z,26.73
2019-04-03T19:05:48.161Z,27.17
2019-04-03T19:08:20.565Z,26.43
2019-04-03T19:11:01.569Z,25.40
2019-04-03T19:13:21.814Z,27.80
2019-04-03T19:15:51.675Z,32.87
2019-04-03T19:18:21.628Z,20.77
2019-04-03T19:20:52.154Z,24.13
2019-04-03T19:23:21.848Z,24.17
2019-04-03T19:25:58.086Z,20.87
2019-04-03T19:28:34.303Z,20.57
2019-04-03T19:31:03.875Z,25.73
2019-04-03T19:33:36.760Z,24.50
2019-04-03T19:36:07.005Z,22.87
2019-04-03T19:38:39.604Z,21.63
2019-04-03T19:41:09.929Z,25.77
2019-04-03T19:43:40.618Z,20.40
2019-04-03T19:46:10.337Z,28.03
2019-04-03T19:48:39.920Z,24.80
2019-04-03T19:51:15.463Z,28.63
2019-04-03T19:53:44.601Z,26.93
2019-04-03T19:56:14.936Z,20.73
2019-04-03T19:58:45.902Z,21.30
2019-04-03T20:01:15.343Z,22.87
2019-04-03T20:03:45.949Z,21.03
2019-04-03T20:06:22.556Z,18.97
2019-04-03T20:08:50.832Z,23.90
2019-04-03T20:11:20.520Z,25.73
2019-04-03T20:13:49.743Z,29.03
2019-04-03T20:16:20.965Z,27.40
2019-04-03T20:18:50.497Z,19.73
2019-04-03T20:21:20.184Z,21.10
2019-04-03T20:23:49.923Z,41.17
2019-04-03T20:26:19.436Z,112.77
2019-04-03T20:28:48.946Z,32.13
2019-04-03T20:31:20.872Z,19.13
2019-04-03T20:33:50.671Z,22.10
2019-04-03T20:36:20.855Z,19.53
2019-04-03T20:38:50.619Z,21.23
2019-04-03T20:41:20.731Z,21.00
2019-04-03T20:43:54.927Z,19.23
2019-04-03T20:46:24.529Z,21.87
2019-04-03T20:48:54.156Z,23.97
2019-04-03T20:51:26.536Z,19.70
2019-04-03T20:53:56.250Z,22.00
2019-04-03T20:56:27.119Z,27.97
2019-04-03T20:59:00.106Z,37.53
2019-04-03T21:01:29.686Z,25.87
2019-04-03T21:03:59.447Z,20.83
2019-04-03T21:06:29.092Z,24.23
2019-04-03T21:08:59.484Z,22.93
2019-04-03T21:11:29.577Z,21.90
2019-04-03T21:13:59.263Z,19.90
2019-04-03T21:16:33.364Z,26.60
2019-04-03T21:19:03.174Z,24.57
2019-04-03T21:21:32.917Z,27.97
2019-04-03T21:24:03.944Z,36.47
2019-04-03T21:26:37.646Z,51.00
2019-04-03T21:29:06.941Z,27.50
2019-04-03T21:31:37.341Z,25.23
2019-04-03T21:34:06.771Z,20.43
2019-04-03T21:36:39.256Z,19.80
2019-04-03T21:39:10.981Z,24.00
2019-04-03T21:41:41.681Z,22.27
2019-04-03T21:44:11.142Z,20.40
2019-04-03T21:46:40.691Z,32.17
2019-04-03T21:49:10.588Z,29.97
2019-04-03T21:51:40.502Z,24.03
2019-04-03T21:54:09.996Z,27.50
2019-04-03T21:56:39.824Z,25.37
2019-04-03T21:59:10.936Z,22.60
2019-04-03T22:01:40.757Z,23.27
2019-04-03T22:04:10.509Z,21.93
2019-04-03T22:06:40.181Z,23.07
2019-04-03T22:09:12.549Z,22.33
2019-04-03T22:11:43.394Z,23.90
2019-04-03T22:14:15.301Z,22.87
2019-04-03T22:16:45.191Z,19.70
2019-04-03T22:19:15.102Z,24.57
2019-04-03T22:21:44.594Z,21.50
2019-04-03T22:24:14.123Z,21.37
2019-04-03T22:26:43.639Z,33.77
2019-04-03T22:29:13.529Z,43.60
2019-04-03T22:31:45.921Z,45.03
2019-04-03T22:34:19.544Z,24.87
2019-04-03T22:36:50.619Z,21.63
2019-04-03T22:39:20.235Z,22.60
2019-04-03T22:41:50.069Z,22.13
2019-04-03T22:44:19.545Z,22.90
2019-04-03T22:46:49.277Z,23.10
2019-04-03T22:49:19.185Z,23.30
2019-04-03T22:51:48.909Z,23.53
2019-04-03T22:54:18.600Z,22.37
2019-04-03T22:56:48.342Z,22.07
2019-04-03T22:59:18.007Z,23.80
2019-04-03T23:01:47.721Z,22.67
2019-04-03T23:04:17.438Z,24.10
2019-04-03T23:06:49.407Z,22.90
2019-04-03T23:09:18.500Z,23.73
2019-04-03T23:11:48.057Z,23.87
2019-04-03T23:14:17.938Z,24.27
2019-04-03T23:16:47.413Z,27.47
2019-04-03T23:19:17.906Z,25.03
2019-04-03T23:21:48.300Z,25.17
2019-04-03T23:24:17.834Z,25.80
2019-04-03T23:26:47.487Z,25.87
2019-04-03T23:29:17.232Z,25.63
2019-04-03T23:31:49.391Z,25.83
2019-04-03T23:34:21.018Z,23.97
2019-04-03T23:36:50.667Z,26.37
2019-04-03T23:39:20.338Z,23.50
2019-04-03T23:41:54.422Z,25.17
2019-04-03T23:44:25.455Z,24.83
2019-04-03T23:46:55.007Z,22.70
2019-04-03T23:49:24.559Z,24.30
2019-04-03T23:51:54.026Z,23.87
2019-04-03T23:54:25.579Z,23.60
2019-04-03T23:56:56.722Z,22.93
2019-04-03T23:59:26.245Z,23.90
